createdAt,value
2022-08-03T00:01:49.724Z,101347.31
2022-08-03T00:04:19.696Z,101348.22
2022-08-03T00:06:51.989Z,101345.53
2022-08-03T00:09:21.719Z,101345.53
2022-08-03T00:11:51.422Z,101348.19
2022-08-03T00:14:21.162Z,101349.09
2022-08-03T00:16:50.885Z,101344.66
2022-08-03T00:19:20.586Z,101342.84
2022-08-03T00:21:52.892Z,101339.28
2022-08-03T00:24:23.073Z,101335.72
2022-08-03T00:26:52.783Z,101341.06
2022-08-03T00:29:22.480Z,101339.28
2022-08-03T00:31:59.492Z,101338.41
2022-08-03T00:34:35.231Z,101340.19
2022-08-03T00:37:21.353Z,101338.41
2022-08-03T00:39:54.245Z,101330.38
2022-08-03T00:42:29.593Z,101331.28
2022-08-03T00:44:59.288Z,101334.84
2022-08-03T00:47:28.981Z,101330.38
2022-08-03T00:49:58.710Z,101331.28
2022-08-03T00:52:31.057Z,101332.19
2022-08-03T00:55:00.787Z,101329.50
2022-08-03T00:57:32.968Z,101323.28
2022-08-03T01:00:02.914Z,101323.28
2022-08-03T01:02:32.635Z,101325.94
2022-08-03T01:05:02.400Z,101319.69
2022-08-03T01:07:45.301Z,101317.94
2022-08-03T01:10:27.451Z,101314.34
2022-08-03T01:13:02.630Z,101316.13
2022-08-03T01:15:40.170Z,101312.56
2022-08-03T01:18:18.447Z,101312.56
2022-08-03T01:20:53.571Z,101305.44
2022-08-03T01:23:44.623Z,101309.03
2022-08-03T01:26:41.518Z,101307.25
2022-08-03T01:29:27.278Z,101302.78
2022-08-03T01:32:53.471Z,101313.44
2022-08-03T01:35:00.941Z,101309.00
2022-08-03T01:37:39.643Z,101309.00
2022-08-03T01:40:12.044Z,101307.22
2022-08-03T01:42:44.203Z,101306.31
2022-08-03T01:45:18.041Z,101295.63
2022-08-03T01:47:52.620Z,101300.09
2022-08-03T01:50:25.410Z,101298.31
2022-08-03T01:52:57.502Z,101293.84
2022-08-03T01:55:29.397Z,101292.06
2022-08-03T01:58:05.391Z,101281.41
2022-08-03T02:00:50.714Z,101286.75
2022-08-03T02:03:26.158Z,101283.16
2022-08-03T02:06:55.617Z,101283.19
2022-08-03T02:08:50.551Z,101284.06
2022-08-03T02:11:20.470Z,101282.28
2022-08-03T02:13:52.997Z,101284.03
2022-08-03T02:16:24.820Z,101288.50
2022-08-03T02:18:58.009Z,101290.31
2022-08-03T02:21:56.391Z,101281.34
2022-08-03T02:24:19.305Z,101282.25
2022-08-03T02:26:49.957Z,101276.03
2022-08-03T02:29:38.718Z,101280.47
2022-08-03T02:32:10.089Z,101277.81
2022-08-03T02:34:45.029Z,101279.59
2022-08-03T02:37:15.943Z,101275.13
2022-08-03T02:39:47.672Z,101279.56
2022-08-03T02:42:21.239Z,101286.69
2022-08-03T02:44:54.169Z,101275.13
2022-08-03T02:47:25.208Z,101269.78
2022-08-03T02:50:00.222Z,101261.78
2022-08-03T02:52:32.736Z,101262.69
2022-08-03T02:55:05.352Z,101252.00
2022-08-03T02:57:38.391Z,101253.78
2022-08-03T03:00:10.101Z,101254.66
2022-08-03T03:02:40.799Z,101252.84
2022-08-03T03:05:55.377Z,101253.75
2022-08-03T03:08:17.718Z,101252.88
2022-08-03T03:10:55.377Z,101253.78
2022-08-03T03:13:26.532Z,101259.13
2022-08-03T03:15:59.486Z,101255.53
2022-08-03T03:18:31.394Z,101262.66
2022-08-03T03:21:04.973Z,101260.88
2022-08-03T03:23:37.032Z,101258.22
2022-08-03T03:26:07.592Z,101256.41
2022-08-03T03:28:39.319Z,101256.44
2022-08-03T03:31:10.960Z,101256.44
2022-08-03T03:33:41.638Z,101266.22
2022-08-03T03:36:14.001Z,101267.13
2022-08-03T03:38:43.883Z,101263.56
2022-08-03T03:41:13.787Z,101264.47
2022-08-03T03:43:43.684Z,101268.91
2022-08-03T03:46:15.874Z,101261.78
2022-08-03T03:48:45.735Z,101261.78
2022-08-03T03:51:18.311Z,101261.78
2022-08-03T03:53:59.114Z,101252.88
2022-08-03T03:56:29.373Z,101268.00
2022-08-03T03:58:59.243Z,101263.53
2022-08-03T04:01:28.983Z,101264.47
2022-08-03T04:04:18.679Z,101263.56
2022-08-03T04:07:03.704Z,101265.34
2022-08-03T04:09:47.667Z,101265.34
2022-08-03T04:12:19.496Z,101262.69
2022-08-03T04:14:50.908Z,101260.00
2022-08-03T04:17:22.575Z,101267.09
2022-08-03T04:19:55.480Z,101257.34
2022-08-03T04:22:31.020Z,101268.00
2022-08-03T04:25:05.065Z,101262.69
2022-08-03T04:27:37.990Z,101264.47
2022-08-03T04:30:09.825Z,101271.59
2022-08-03T04:32:45.817Z,101266.25
2022-08-03T04:35:15.836Z,101268.91
2022-08-03T04:37:52.339Z,101273.34
2022-08-03T04:40:25.501Z,101284.03
2022-08-03T04:43:01.393Z,101282.28
2022-08-03T04:45:33.224Z,101280.50
2022-08-03T04:48:03.340Z,101276.94
2022-08-03T04:50:33.589Z,101276.91
2022-08-03T04:53:05.927Z,101275.97
2022-08-03T04:55:38.335Z,101288.41
2022-08-03T04:58:08.176Z,101297.25
2022-08-03T05:00:38.227Z,101290.81
2022-08-03T05:03:20.570Z,101292.44
2022-08-03T05:06:01.657Z,101294.06
2022-08-03T05:08:46.868Z,101292.03
2022-08-03T05:11:18.822Z,101289.16
2022-08-03T05:13:48.832Z,101290.72
2022-08-03T05:16:18.714Z,101292.25
2022-08-03T05:18:48.773Z,101287.59
2022-08-03T05:21:18.497Z,101295.41
2022-08-03T05:23:50.874Z,101287.09
2022-08-03T05:26:20.865Z,101286.75
2022-08-03T05:28:51.570Z,101288.38
2022-08-03T05:31:21.928Z,101291.84
2022-08-03T05:33:51.700Z,101285.34
2022-08-03T05:36:21.410Z,101285.09
2022-08-03T05:38:53.928Z,101289.16
2022-08-03T05:41:36.907Z,101286.09
2022-08-03T05:44:08.174Z,101293.13
2022-08-03T05:46:38.090Z,101294.88
2022-08-03T05:49:07.846Z,101296.44
2022-08-03T05:51:37.576Z,101291.75
2022-08-03T05:54:09.963Z,101294.09
2022-08-03T05:56:41.100Z,101290.59
2022-08-03T05:59:35.859Z,101293.16
2022-08-03T06:02:00.751Z,101296.50
2022-08-03T06:04:30.540Z,101291.91
2022-08-03T06:07:00.290Z,101289.09
2022-08-03T06:10:36.897Z,101287.06
2022-08-03T06:12:25.233Z,101287.81
2022-08-03T06:14:54.988Z,101287.66
2022-08-03T06:17:24.831Z,101281.94
2022-08-03T06:19:56.541Z,101280.88
2022-08-03T06:22:26.300Z,101287.75
2022-08-03T06:25:04.094Z,101288.34
2022-08-03T06:27:37.276Z,101283.84
2022-08-03T06:30:09.039Z,101287.53
2022-08-03T06:32:40.535Z,101287.75
2022-08-03T06:35:12.016Z,101286.50
2022-08-03T06:37:47.941Z,101292.66
2022-08-03T06:40:28.661Z,101298.03
2022-08-03T06:42:58.628Z,101295.44
2022-08-03T06:45:31.931Z,101300.00
2022-08-03T06:48:06.997Z,101294.31
2022-08-03T06:50:38.312Z,101295.75
2022-08-03T06:53:09.180Z,101289.69
2022-08-03T06:55:54.413Z,101298.88
2022-08-03T06:58:25.116Z,101296.50
2022-08-03T07:00:54.803Z,101289.84
2022-08-03T07:03:24.557Z,101292.47
2022-08-03T07:05:54.356Z,101290.50
2022-08-03T07:08:34.148Z,101294.88
2022-08-03T07:11:08.086Z,101302.66
2022-08-03T07:13:37.786Z,101295.91
2022-08-03T07:16:08.179Z,101293.75
2022-08-03T07:18:41.077Z,101290.66
2022-08-03T07:21:12.744Z,101288.50
2022-08-03T07:23:42.570Z,101293.28
2022-08-03T07:26:14.975Z,101296.47
2022-08-03T07:28:44.708Z,101302.34
2022-08-03T07:31:14.460Z,101296.47
2022-08-03T07:33:44.229Z,101294.63
2022-08-03T07:36:13.937Z,101298.19
2022-08-03T07:38:43.673Z,101304.00
2022-08-03T07:41:15.994Z,101303.25
2022-08-03T07:43:45.707Z,101303.81
2022-08-03T07:46:18.881Z,101302.72
2022-08-03T07:48:48.592Z,101307.22
2022-08-03T07:51:18.330Z,101308.13
2022-08-03T07:53:48.081Z,101305.88
2022-08-03T07:56:21.589Z,101308.78
2022-08-03T07:58:51.281Z,101320.16
2022-08-03T08:01:21.058Z,101319.50
2022-08-03T08:03:52.796Z,101322.31
2022-08-03T08:06:23.835Z,101317.06
2022-08-03T08:08:53.798Z,101322.38
2022-08-03T08:11:26.248Z,101324.56
2022-08-03T08:13:55.950Z,101323.47
2022-08-03T08:16:25.697Z,101326.44
2022-08-03T08:18:55.484Z,101326.41
2022-08-03T08:21:25.404Z,101337.69
2022-08-03T08:24:19.696Z,101332.16
2022-08-03T08:26:52.810Z,101332.97
2022-08-03T08:29:23.454Z,101323.53
2022-08-03T08:31:53.182Z,101323.38
2022-08-03T08:34:22.918Z,101319.47
2022-08-03T08:36:52.637Z,101326.28
2022-08-03T08:39:22.338Z,101323.31
2022-08-03T08:41:56.530Z,101324.13
2022-08-03T08:44:26.262Z,101324.53
2022-08-03T08:46:58.152Z,101328.84
2022-08-03T08:49:30.972Z,101321.97
2022-08-03T08:52:02.446Z,101321.34
2022-08-03T08:54:33.846Z,101327.81
2022-08-03T08:57:21.296Z,101327.25
2022-08-03T08:59:59.781Z,101331.03
2022-08-03T09:02:33.055Z,101327.94
2022-08-03T09:05:07.336Z,101324.06
2022-08-03T09:07:37.800Z,101330.06
2022-08-03T09:10:13.022Z,101331.19
2022-08-03T09:12:47.068Z,101335.84
2022-08-03T09:15:22.480Z,101331.88
2022-08-03T09:17:53.837Z,101333.06
2022-08-03T09:20:25.020Z,101326.00
2022-08-03T09:22:57.665Z,101330.47
2022-08-03T09:25:32.839Z,101331.47
2022-08-03T09:28:13.864Z,101322.72
2022-08-03T09:31:03.728Z,101329.16
2022-08-03T09:33:35.892Z,101330.91
2022-08-03T09:36:06.292Z,101324.56
2022-08-03T09:38:36.089Z,101326.19
2022-08-03T09:41:06.654Z,101332.31
2022-08-03T09:43:51.803Z,101324.47
2022-08-03T09:46:21.649Z,101331.13
2022-08-03T09:48:51.365Z,101327.28
2022-08-03T09:51:32.874Z,101330.88
2022-08-03T09:54:29.358Z,101328.16
2022-08-03T09:57:00.249Z,101320.94
2022-08-03T09:59:34.388Z,101325.22
2022-08-03T10:02:04.216Z,101332.31
2022-08-03T10:04:33.965Z,101329.59
2022-08-03T10:07:09.561Z,101340.50
2022-08-03T10:09:39.789Z,101335.53
2022-08-03T10:12:14.253Z,101342.25
2022-08-03T10:14:46.938Z,101334.88
2022-08-03T10:17:17.192Z,101335.22
2022-08-03T10:19:47.417Z,101346.88
2022-08-03T10:22:19.041Z,101336.66
2022-08-03T10:24:55.906Z,101334.84
2022-08-03T10:27:26.997Z,101332.78
2022-08-03T10:30:03.651Z,101334.00
2022-08-03T10:32:36.980Z,101332.34
2022-08-03T10:35:19.126Z,101332.03
2022-08-03T10:37:57.028Z,101340.97
2022-08-03T10:43:25.252Z,101323.00
2022-08-03T10:45:59.017Z,101328.44
2022-08-03T10:48:29.585Z,101335.50
2022-08-03T10:50:59.511Z,101324.06
2022-08-03T10:53:40.432Z,101329.81
2022-08-03T10:56:49.562Z,101329.81
2022-08-03T10:59:27.459Z,101340.00
2022-08-03T11:02:01.416Z,101338.44
2022-08-03T11:04:32.124Z,101341.97
2022-08-03T11:07:24.207Z,101334.84
2022-08-03T11:09:55.461Z,101331.91
2022-08-03T11:12:28.470Z,101333.75
2022-08-03T11:15:03.320Z,101335.41
2022-08-03T11:17:46.635Z,101333.66
2022-08-03T11:20:50.346Z,101323.31
2022-08-03T11:24:03.189Z,101323.16
2022-08-03T11:26:16.586Z,101341.91
2022-08-03T11:28:47.784Z,101327.38
2022-08-03T11:31:59.371Z,101344.28
2022-08-03T11:34:31.689Z,101339.75
2022-08-03T11:37:30.198Z,101343.13
2022-08-03T11:40:03.659Z,101333.94
2022-08-03T11:42:52.713Z,101342.97
2022-08-03T11:45:22.432Z,101335.78
2022-08-03T11:47:58.654Z,101344.84
2022-08-03T11:50:39.622Z,101338.56
2022-08-03T11:53:10.287Z,101340.59
2022-08-03T11:55:43.370Z,101337.91
2022-08-03T11:59:17.274Z,101340.34
2022-08-03T12:01:12.503Z,101349.59
2022-08-03T12:03:42.359Z,101346.78
2022-08-03T12:06:16.927Z,101346.78
2022-08-03T12:08:48.002Z,101349.28
2022-08-03T12:11:18.932Z,101350.91
2022-08-03T12:14:08.809Z,101360.00
2022-08-03T12:16:41.021Z,101356.44
2022-08-03T12:19:10.750Z,101352.75
2022-08-03T12:21:56.907Z,101357.25
2022-08-03T12:24:29.652Z,101357.16
2022-08-03T12:27:00.106Z,101350.91
2022-08-03T12:29:30.625Z,101360.22
2022-08-03T12:32:00.434Z,101345.97
2022-08-03T12:34:50.950Z,101357.88
2022-08-03T12:37:25.891Z,101347.84
2022-08-03T12:40:01.751Z,101357.50
2022-08-03T12:42:35.313Z,101357.44
2022-08-03T12:45:24.014Z,101347.00
2022-08-03T12:47:58.265Z,101359.94
2022-08-03T12:50:31.378Z,101353.47
2022-08-03T12:53:07.904Z,101351.38
2022-08-03T12:56:04.281Z,101354.88
2022-08-03T12:58:35.642Z,101359.78
2022-08-03T13:01:10.332Z,101360.53
2022-08-03T13:03:45.683Z,101357.78
2022-08-03T13:06:21.203Z,101356.56
2022-08-03T13:09:04.126Z,101360.88
2022-08-03T13:11:53.473Z,101364.25
2022-08-03T13:14:23.942Z,101360.88
2022-08-03T13:16:54.212Z,101361.81
2022-08-03T13:19:23.948Z,101362.09
2022-08-03T13:22:04.219Z,101363.66
2022-08-03T13:24:37.253Z,101354.81
2022-08-03T13:28:01.630Z,101358.44
2022-08-03T13:29:57.766Z,101355.81
2022-08-03T13:32:27.517Z,101347.47
2022-08-03T13:34:57.208Z,101349.28
2022-08-03T13:37:27.251Z,101349.19
2022-08-03T13:40:02.428Z,101356.44
2022-08-03T13:42:34.033Z,101349.75
2022-08-03T13:45:04.496Z,101355.56
2022-08-03T13:47:34.640Z,101349.38
2022-08-03T13:50:04.371Z,101350.00
2022-08-03T13:52:35.253Z,101352.81
2022-08-03T13:55:09.364Z,101352.91
2022-08-03T13:58:04.252Z,101350.91
2022-08-03T14:00:29.648Z,101351.69
2022-08-03T14:03:09.108Z,101355.03
2022-08-03T14:05:42.343Z,101354.34
2022-08-03T14:08:12.596Z,101354.13
2022-08-03T14:10:47.573Z,101352.13
2022-08-03T14:13:18.279Z,101357.53
2022-08-03T14:15:50.260Z,101348.38
2022-08-03T14:18:28.608Z,101351.97
2022-08-03T14:21:06.717Z,101352.72
2022-08-03T14:23:38.286Z,101344.47
2022-08-03T14:26:12.185Z,101354.16
2022-08-03T14:28:41.952Z,101340.44
2022-08-03T14:32:10.193Z,101348.69
2022-08-03T14:34:01.393Z,101347.56
2022-08-03T14:36:31.112Z,101344.00
2022-08-03T14:39:01.513Z,101353.16
2022-08-03T14:41:34.103Z,101354.28
2022-08-03T14:44:03.813Z,101353.34
2022-08-03T14:46:34.125Z,101346.38
2022-08-03T14:50:31.385Z,101348.75
2022-08-03T14:51:55.083Z,101346.91
2022-08-03T14:54:25.270Z,101348.03
2022-08-03T14:56:57.616Z,101344.75
2022-08-03T14:59:28.464Z,101340.56
2022-08-03T15:02:23.310Z,101350.25
2022-08-03T15:04:53.757Z,101344.00
2022-08-03T15:07:23.628Z,101348.28
2022-08-03T15:09:53.422Z,101347.41
2022-08-03T15:12:25.735Z,101332.28
2022-08-03T15:14:55.467Z,101337.34
2022-08-03T15:17:25.436Z,101336.69
2022-08-03T15:20:05.564Z,101325.63
2022-08-03T15:22:44.884Z,101330.16
2022-08-03T15:26:28.605Z,101327.41
2022-08-03T15:28:07.571Z,101334.53
2022-08-03T15:30:38.615Z,101329.50
2022-08-03T15:33:08.834Z,101328.78
2022-08-03T15:35:38.632Z,101328.03
2022-08-03T15:38:09.677Z,101332.56
2022-08-03T15:40:40.030Z,101327.91
2022-08-03T15:43:12.385Z,101325.72
2022-08-03T15:45:43.090Z,101336.06
2022-08-03T15:48:12.798Z,101330.94
2022-08-03T15:50:43.868Z,101330.31
2022-08-03T15:53:13.671Z,101333.31
2022-08-03T15:55:43.919Z,101325.69
2022-08-03T15:59:10.981Z,101329.81
2022-08-03T16:01:07.565Z,101324.25
2022-08-03T16:03:38.479Z,101326.34
2022-08-03T16:06:10.307Z,101331.91
2022-08-03T16:08:39.988Z,101329.25
2022-08-03T16:11:09.855Z,101327.59
2022-08-03T16:14:13.852Z,101330.34
2022-08-03T16:16:31.990Z,101325.31
2022-08-03T16:19:05.502Z,101329.69
2022-08-03T16:21:47.321Z,101332.50
2022-08-03T16:24:25.202Z,101337.81
2022-08-03T16:26:58.125Z,101344.31
2022-08-03T16:29:32.917Z,101342.91
2022-08-03T16:32:09.411Z,101340.59
2022-08-03T16:34:40.635Z,101341.66
2022-08-03T16:37:37.010Z,101343.72
2022-08-03T16:40:01.231Z,101357.13
2022-08-03T16:42:30.987Z,101348.13
2022-08-03T16:45:03.395Z,101353.63
2022-08-03T16:47:33.117Z,101347.53
2022-08-03T16:50:07.203Z,101355.72
2022-08-03T16:52:41.498Z,101355.09
2022-08-03T16:55:42.746Z,101367.78
2022-08-03T16:58:08.324Z,101364.44
2022-08-03T17:00:46.277Z,101362.91
2022-08-03T17:03:20.482Z,101353.34
2022-08-03T17:05:54.124Z,101359.88
2022-08-03T17:08:29.400Z,101356.53
2022-08-03T17:10:59.975Z,101361.06
2022-08-03T17:13:39.693Z,101355.59
2022-08-03T17:16:15.276Z,101360.03
2022-08-03T17:18:50.304Z,101361.88
2022-08-03T17:21:25.697Z,101364.63
2022-08-03T17:24:03.411Z,101364.63
2022-08-03T17:26:34.351Z,101359.16
2022-08-03T17:29:12.826Z,101353.78
2022-08-03T17:31:48.674Z,101359.16
2022-08-03T17:34:20.487Z,101359.06
2022-08-03T17:37:07.027Z,101360.00
2022-08-03T17:39:58.380Z,101354.53
2022-08-03T17:42:39.205Z,101360.78
2022-08-03T17:45:15.872Z,101355.38
2022-08-03T17:47:57.185Z,101358.00
2022-08-03T17:50:36.826Z,101356.22
2022-08-03T17:53:23.593Z,101363.41
2022-08-03T17:56:44.439Z,101367.94
2022-08-03T17:59:10.513Z,101370.69
2022-08-03T18:02:05.437Z,101360.78
2022-08-03T18:04:55.441Z,101362.59
2022-08-03T18:07:41.090Z,101366.56
2022-08-03T18:10:15.175Z,101358.72
2022-08-03T18:12:51.841Z,101357.41
2022-08-03T18:15:27.247Z,101356.94
2022-08-03T18:18:02.911Z,101358.13
2022-08-03T18:20:45.698Z,101354.06
2022-08-03T18:23:24.692Z,101361.44
2022-08-03T18:26:12.011Z,101348.88
2022-08-03T18:28:42.366Z,101359.69
2022-08-03T18:31:33.186Z,101353.34
2022-08-03T18:34:16.629Z,101356.88
2022-08-03T18:36:52.591Z,101359.63
2022-08-03T18:39:25.982Z,101362.38
2022-08-03T18:41:55.763Z,101353.38
2022-08-03T18:44:52.474Z,101353.34
2022-08-03T18:47:50.616Z,101353.34
2022-08-03T18:50:30.721Z,101347.09
2022-08-03T18:53:15.402Z,101344.44
2022-08-03T18:56:02.024Z,101344.56
2022-08-03T18:58:52.406Z,101341.09
2022-08-03T19:01:58.451Z,101349.25
2022-08-03T19:04:28.210Z,101343.00
2022-08-03T19:07:04.507Z,101342.28
2022-08-03T19:09:51.860Z,101344.25
2022-08-03T19:12:31.199Z,101334.63
2022-08-03T19:15:17.364Z,101344.72
2022-08-03T19:18:10.804Z,101347.66
2022-08-03T19:20:41.528Z,101349.59
2022-08-03T19:23:17.590Z,101346.13
2022-08-03T19:25:49.958Z,101346.19
2022-08-03T19:28:20.617Z,101342.75
2022-08-03T19:31:06.518Z,101349.09
2022-08-03T19:33:55.874Z,101354.59
2022-08-03T19:36:29.242Z,101348.38
2022-08-03T19:38:59.643Z,101352.00
2022-08-03T19:41:41.644Z,101355.63
2022-08-03T19:44:19.744Z,101347.75
2022-08-03T19:46:55.839Z,101351.34
2022-08-03T19:50:05.098Z,101344.28
2022-08-03T19:52:24.547Z,101347.03
2022-08-03T19:55:02.996Z,101350.69
2022-08-03T19:57:38.379Z,101349.81
2022-08-03T20:00:13.985Z,101341.78
2022-08-03T20:02:44.169Z,101351.63
2022-08-03T20:05:15.659Z,101350.75
2022-08-03T20:07:48.139Z,101350.75
2022-08-03T20:10:18.968Z,101350.78
2022-08-03T20:12:51.972Z,101353.47
2022-08-03T20:15:31.223Z,101351.69
2022-08-03T20:18:02.616Z,101352.66
2022-08-03T20:20:36.252Z,101353.59
2022-08-03T20:23:13.079Z,101339.28
2022-08-03T20:25:58.578Z,101334.84
2022-08-03T20:28:34.988Z,101340.31
2022-08-03T20:31:22.763Z,101343.09
2022-08-03T20:33:56.332Z,101347.59
2022-08-03T20:36:27.012Z,101350.31
2022-08-03T20:38:58.073Z,101356.63
2022-08-03T20:41:28.392Z,101352.22
2022-08-03T20:44:04.613Z,101355.84
2022-08-03T20:46:50.066Z,101355.03
2022-08-03T20:49:25.588Z,101360.38
2022-08-03T20:51:56.341Z,101363.16
2022-08-03T20:54:31.341Z,101370.31
2022-08-03T20:57:02.861Z,101362.31
2022-08-03T20:59:50.675Z,101360.53
2022-08-03T21:02:29.520Z,101355.19
2022-08-03T21:05:03.621Z,101358.81
2022-08-03T21:08:05.660Z,101359.75
2022-08-03T21:10:37.995Z,101342.84
2022-08-03T21:13:17.779Z,101350.88
2022-08-03T21:16:05.392Z,101341.97
2022-08-03T21:21:18.102Z,101337.53
2022-08-03T21:23:52.744Z,101327.72
2022-08-03T21:28:54.860Z,101323.22
2022-08-03T21:31:27.860Z,101316.13
2022-08-03T21:33:59.239Z,101311.78
2022-08-03T21:36:31.042Z,101326.13
2022-08-03T21:39:01.485Z,101316.34
2022-08-03T21:41:34.585Z,101313.66
2022-08-03T21:44:04.973Z,101313.69
2022-08-03T21:46:42.027Z,101309.25
2022-08-03T21:50:05.166Z,101309.34
2022-08-03T21:52:07.142Z,101294.16
2022-08-03T21:54:39.309Z,101302.22
2022-08-03T21:57:20.762Z,101301.34
2022-08-03T21:59:57.137Z,101302.22
2022-08-03T22:02:32.536Z,101300.47
2022-08-03T22:05:04.881Z,101300.50
2022-08-03T22:07:35.861Z,101300.50
2022-08-03T22:10:07.989Z,101299.56
2022-08-03T22:12:38.426Z,101302.25
2022-08-03T22:15:10.889Z,101296.94
2022-08-03T22:17:54.638Z,101293.34
2022-08-03T22:20:27.425Z,101298.72
2022-08-03T22:22:59.054Z,101286.25
2022-08-03T22:25:31.547Z,101283.59
2022-08-03T22:28:04.526Z,101286.28
2022-08-03T22:30:34.395Z,101285.38
2022-08-03T22:33:11.265Z,101280.94
2022-08-03T22:35:48.065Z,101281.84
2022-08-03T22:38:18.811Z,101280.06
2022-08-03T22:40:51.310Z,101276.50
2022-08-03T22:43:25.105Z,101279.22
2022-08-03T22:46:09.681Z,101280.09
2022-08-03T22:48:44.876Z,101276.56
2022-08-03T22:51:14.566Z,101277.47
2022-08-03T22:53:44.738Z,101276.56
2022-08-03T22:56:15.448Z,101279.28
2022-08-03T22:58:45.200Z,101277.47
2022-08-03T23:01:19.860Z,101277.47
2022-08-03T23:04:02.195Z,101270.38
2022-08-03T23:06:37.336Z,101273.00
2022-08-03T23:09:09.769Z,101273.03
2022-08-03T23:11:45.642Z,101279.28
2022-08-03T23:14:17.885Z,101276.63
2022-08-03T23:16:49.231Z,101280.22
2022-08-03T23:19:25.083Z,101274.00
2022-08-03T23:22:02.500Z,101276.66
2022-08-03T23:24:36.331Z,101272.22
2022-08-03T23:27:06.844Z,101273.13
2022-08-03T23:29:38.335Z,101262.44
2022-08-03T23:32:09.748Z,101268.69
2022-08-03T23:34:55.895Z,101273.16
2022-08-03T23:37:27.160Z,101265.13
2022-08-03T23:39:59.810Z,101271.38
2022-08-03T23:42:30.502Z,101264.25
2022-08-03T23:45:05.421Z,101268.72
2022-08-03T23:47:47.494Z,101264.25
2022-08-03T23:50:21.443Z,101259.81
2022-08-03T23:53:06.024Z,101264.25
2022-08-03T23:55:55.156Z,101269.63
2022-08-03T23:58:38.636Z,101264.31
